createdAt,value
2018-02-19T00:02:09.717Z,11.50
2018-02-19T00:04:37.387Z,18.27
2018-02-19T00:07:05.100Z,19.63
2018-02-19T00:09:32.704Z,20.17
2018-02-19T00:12:00.373Z,20.67
2018-02-19T00:14:27.941Z,19.50
2018-02-19T00:16:55.760Z,19.93
2018-02-19T00:19:23.656Z,19.77
2018-02-19T00:21:51.427Z,17.90
2018-02-19T00:24:19.088Z,20.53
2018-02-19T00:26:46.849Z,19.83
2018-02-19T00:29:14.421Z,19.83
2018-02-19T00:31:42.068Z,20.00
2018-02-19T00:34:09.789Z,21.60
2018-02-19T00:36:37.445Z,20.30
2018-02-19T00:39:05.195Z,19.47
2018-02-19T00:41:32.786Z,19.83
2018-02-19T00:44:01.286Z,20.03
2018-02-19T00:46:29.046Z,19.70
2018-02-19T00:48:56.926Z,18.50
2018-02-19T00:51:24.585Z,18.50
2018-02-19T00:53:52.240Z,18.67
2018-02-19T00:56:20.057Z,18.97
2018-02-19T00:58:47.684Z,18.37
2018-02-19T01:01:15.423Z,18.37
2018-02-19T01:03:43.143Z,18.77
2018-02-19T01:06:10.935Z,18.77
2018-02-19T01:08:38.546Z,20.67
2018-02-19T01:11:06.311Z,17.27
2018-02-19T01:13:34.120Z,19.30
2018-02-19T01:16:01.685Z,18.90
2018-02-19T01:18:29.381Z,18.77
2018-02-19T01:20:57.041Z,20.17
2018-02-19T01:23:24.722Z,18.73
2018-02-19T01:25:52.381Z,17.83
2018-02-19T01:28:20.119Z,19.57
2018-02-19T01:30:47.740Z,19.63
2018-02-19T01:33:15.475Z,20.00
2018-02-19T01:35:43.188Z,17.97
2018-02-19T01:38:10.791Z,20.23
2018-02-19T01:40:38.360Z,19.20
2018-02-19T01:43:06.059Z,17.07
2018-02-19T01:45:33.724Z,19.53
2018-02-19T01:48:01.412Z,20.60
2018-02-19T01:50:29.070Z,19.70
2018-02-19T01:52:56.775Z,19.70
2018-02-19T01:55:24.463Z,18.47
2018-02-19T01:57:52.070Z,18.97
2018-02-19T02:00:19.678Z,20.27
2018-02-19T02:02:47.300Z,17.43
2018-02-19T02:05:15.716Z,18.50
2018-02-19T02:07:43.519Z,19.50
2018-02-19T02:10:11.193Z,19.93
2018-02-19T02:12:38.978Z,21.20
2018-02-19T02:15:07.394Z,20.97
2018-02-19T02:17:35.079Z,19.03
2018-02-19T02:20:02.781Z,19.07
2018-02-19T02:22:31.228Z,19.43
2018-02-19T02:24:58.954Z,20.43
2018-02-19T02:27:26.682Z,20.63
2018-02-19T02:29:55.059Z,20.23
2018-02-19T02:32:22.814Z,17.70
2018-02-19T02:34:50.528Z,20.33
2018-02-19T02:37:18.356Z,18.17
2018-02-19T02:39:46.906Z,19.30
2018-02-19T02:42:14.546Z,18.40
2018-02-19T02:44:42.196Z,19.77
2018-02-19T02:47:09.874Z,18.73
2018-02-19T02:49:37.579Z,18.77
2018-02-19T02:52:05.202Z,19.97
2018-02-19T02:54:32.859Z,19.17
2018-02-19T02:57:00.508Z,19.00
2018-02-19T02:59:28.175Z,20.40
2018-02-19T03:01:55.879Z,18.47
2018-02-19T03:04:23.519Z,19.87
2018-02-19T03:06:51.268Z,19.00
2018-02-19T03:09:18.994Z,19.67
2018-02-19T03:11:46.714Z,17.63
2018-02-19T03:14:14.418Z,21.53
2018-02-19T03:16:42.033Z,20.20
2018-02-19T03:19:09.887Z,19.50
2018-02-19T03:21:37.642Z,18.83
2018-02-19T03:24:05.233Z,20.10
2018-02-19T03:26:32.991Z,22.13
2018-02-19T03:29:00.657Z,20.20
2018-02-19T03:31:28.227Z,20.30
2018-02-19T03:33:55.896Z,18.70
2018-02-19T03:36:23.480Z,20.80
2018-02-19T03:38:51.191Z,20.67
2018-02-19T03:41:18.941Z,21.90
2018-02-19T03:43:46.557Z,18.97
2018-02-19T03:46:14.380Z,20.20
2018-02-19T03:48:42.112Z,21.57
2018-02-19T03:51:09.732Z,19.27
2018-02-19T03:53:37.278Z,20.67
2018-02-19T03:56:04.898Z,23.20
2018-02-19T03:58:33.486Z,19.60
2018-02-19T04:01:01.914Z,20.87
2018-02-19T04:03:29.647Z,21.37
2018-02-19T04:05:57.399Z,21.70
2018-02-19T04:08:25.212Z,19.93
2018-02-19T04:10:52.879Z,19.37
2018-02-19T04:13:20.538Z,19.63
2018-02-19T04:15:48.221Z,19.73
2018-02-19T04:18:15.882Z,20.00
2018-02-19T04:20:43.568Z,18.63
2018-02-19T04:23:11.170Z,20.83
2018-02-19T04:25:38.803Z,21.20
2018-02-19T04:28:06.454Z,19.80
2018-02-19T04:30:34.028Z,20.97
2018-02-19T04:33:02.666Z,20.87
2018-02-19T04:35:31.064Z,19.67
2018-02-19T04:38:02.363Z,22.37
2018-02-19T04:40:29.827Z,21.87
2018-02-19T04:42:59.466Z,21.80
2018-02-19T04:45:27.740Z,20.60
2018-02-19T04:47:55.319Z,22.00
2018-02-19T04:50:22.959Z,21.73
2018-02-19T04:52:50.563Z,21.57
2018-02-19T04:55:19.039Z,21.47
2018-02-19T04:57:46.728Z,23.03
2018-02-19T05:00:14.496Z,22.10
2018-02-19T05:02:42.153Z,20.27
2018-02-19T05:05:09.747Z,21.73
2018-02-19T05:07:37.356Z,21.97
2018-02-19T05:10:05.757Z,21.30
2018-02-19T05:12:33.389Z,23.57
2018-02-19T05:15:01.034Z,22.27
2018-02-19T05:17:28.774Z,23.07
2018-02-19T05:19:56.542Z,23.47
2018-02-19T05:22:24.178Z,22.00
2018-02-19T05:24:51.934Z,21.17
2018-02-19T05:27:20.312Z,21.37
2018-02-19T05:29:48.709Z,23.87
2018-02-19T05:32:16.433Z,21.03
2018-02-19T05:34:44.210Z,23.17
2018-02-19T05:37:12.553Z,22.67
2018-02-19T05:39:40.231Z,21.43
2018-02-19T05:42:07.926Z,21.00
2018-02-19T05:44:35.563Z,22.70
2018-02-19T05:47:03.204Z,22.23
2018-02-19T05:49:30.878Z,24.87
2018-02-19T05:51:58.583Z,21.80
2018-02-19T05:54:26.482Z,21.90
2018-02-19T05:56:54.130Z,21.70
2018-02-19T05:59:22.808Z,21.10
2018-02-19T06:01:50.380Z,23.00
2018-02-19T06:04:18.125Z,22.50
2018-02-19T06:06:45.888Z,20.97
2018-02-19T06:09:13.578Z,22.00
2018-02-19T06:11:41.157Z,21.47
2018-02-19T06:14:08.831Z,22.67
2018-02-19T06:16:36.617Z,23.40
2018-02-19T06:19:04.426Z,19.50
2018-02-19T06:21:32.025Z,23.33
2018-02-19T06:23:59.802Z,20.90
2018-02-19T06:26:28.049Z,21.93
2018-02-19T06:28:56.889Z,22.57
2018-02-19T06:31:25.462Z,19.60
2018-02-19T06:33:54.008Z,23.73
2018-02-19T06:36:21.597Z,22.03
2018-02-19T06:38:49.313Z,20.37
2018-02-19T06:41:17.046Z,23.80
2018-02-19T06:43:45.395Z,23.27
2018-02-19T06:46:13.110Z,24.50
2018-02-19T06:48:40.733Z,24.30
2018-02-19T06:51:08.379Z,25.13
2018-02-19T06:53:36.084Z,24.63
2018-02-19T06:56:03.778Z,23.77
2018-02-19T06:58:31.468Z,22.77
2018-02-19T07:00:59.182Z,22.57
2018-02-19T07:03:26.839Z,25.37
2018-02-19T07:05:55.261Z,24.17
2018-02-19T07:08:22.837Z,24.07
2018-02-19T07:10:50.534Z,23.30
2018-02-19T07:13:18.972Z,22.57
2018-02-19T07:15:46.644Z,23.37
2018-02-19T07:18:15.097Z,24.53
2018-02-19T07:20:42.855Z,25.60
2018-02-19T07:23:10.499Z,23.97
2018-02-19T07:25:38.199Z,25.90
2018-02-19T07:28:05.796Z,24.60
2018-02-19T07:30:33.556Z,25.53
2018-02-19T07:33:01.093Z,24.07
2018-02-19T07:35:28.565Z,23.63
2018-02-19T07:37:56.277Z,25.33
2018-02-19T07:40:24.089Z,25.03
2018-02-19T07:42:51.553Z,25.40
2018-02-19T07:45:19.014Z,25.13
2018-02-19T07:47:46.494Z,26.13
2018-02-19T07:50:14.061Z,25.97
2018-02-19T07:52:42.313Z,26.33
2018-02-19T07:55:09.794Z,24.80
2018-02-19T07:57:38.086Z,25.23
2018-02-19T08:00:05.551Z,25.50
2018-02-19T08:02:33.015Z,27.43
2018-02-19T08:05:00.507Z,25.90
2018-02-19T08:07:28.002Z,27.33
2018-02-19T08:09:56.221Z,25.63
2018-02-19T08:12:23.732Z,26.17
2018-02-19T08:14:51.223Z,25.47
2018-02-19T08:17:18.759Z,26.00
2018-02-19T08:19:47.070Z,27.40
2018-02-19T08:22:14.561Z,25.57
2018-02-19T08:24:42.045Z,26.30
2018-02-19T08:27:09.537Z,25.03
2018-02-19T08:29:37.010Z,26.80
2018-02-19T08:32:04.489Z,27.60
2018-02-19T08:34:31.961Z,28.43
2018-02-19T08:36:59.434Z,27.90
2018-02-19T08:39:27.694Z,25.60
2018-02-19T08:41:55.159Z,25.03
2018-02-19T08:44:22.646Z,22.77
2018-02-19T08:46:50.901Z,23.43
2018-02-19T08:49:18.377Z,27.00
2018-02-19T08:51:46.647Z,25.43
2018-02-19T08:54:14.878Z,25.60
2018-02-19T08:56:42.346Z,22.23
2018-02-19T08:59:09.853Z,25.77
2018-02-19T09:01:38.078Z,23.23
2018-02-19T09:04:05.569Z,23.87
2018-02-19T09:06:33.022Z,25.50
2018-02-19T09:09:00.522Z,25.43
2018-02-19T09:11:28.005Z,25.10
2018-02-19T09:13:55.539Z,22.50
2018-02-19T09:16:23.011Z,24.40
2018-02-19T09:18:50.579Z,26.27
2018-02-19T09:21:18.027Z,24.07
2018-02-19T09:23:45.532Z,25.70
2018-02-19T09:26:13.000Z,25.83
2018-02-19T09:28:40.485Z,27.50
2018-02-19T09:31:07.938Z,25.67
2018-02-19T09:33:35.429Z,25.70
2018-02-19T09:36:02.889Z,25.27
2018-02-19T09:38:30.390Z,26.00
2018-02-19T09:40:59.239Z,26.00
2018-02-19T09:43:26.717Z,25.63
2018-02-19T09:45:54.202Z,24.63
2018-02-19T09:48:22.506Z,25.10
2018-02-19T09:50:49.961Z,27.60
2018-02-19T09:53:17.454Z,24.10
2018-02-19T09:55:44.927Z,26.20
2018-02-19T09:58:12.415Z,24.27
2018-02-19T10:00:39.894Z,27.20
2018-02-19T10:03:07.379Z,22.83
2018-02-19T10:05:34.874Z,26.77
2018-02-19T10:08:02.345Z,23.97
2018-02-19T10:10:30.595Z,24.13
2018-02-19T10:12:58.054Z,23.60
2018-02-19T10:15:25.589Z,24.10
2018-02-19T10:17:53.777Z,25.83
2018-02-19T10:20:21.269Z,26.10
2018-02-19T10:22:49.495Z,25.73
2018-02-19T10:25:16.957Z,25.67
2018-02-19T10:27:44.434Z,24.20
2018-02-19T10:30:11.897Z,24.43
2018-02-19T10:32:39.402Z,23.80
2018-02-19T10:35:06.890Z,25.67
2018-02-19T10:37:34.351Z,25.07
2018-02-19T10:40:01.822Z,26.33
2018-02-19T10:42:29.319Z,23.20
2018-02-19T10:44:56.777Z,27.00
2018-02-19T10:47:24.244Z,24.97
2018-02-19T10:49:51.743Z,26.60
2018-02-19T10:52:19.217Z,24.87
2018-02-19T10:54:46.690Z,24.90
2018-02-19T10:57:14.195Z,21.37
2018-02-19T10:59:41.650Z,26.20
2018-02-19T11:02:09.121Z,24.37
2018-02-19T11:04:36.626Z,24.73
2018-02-19T11:07:04.076Z,24.57
2018-02-19T11:09:31.575Z,25.90
2018-02-19T11:11:59.046Z,24.77
2018-02-19T11:14:26.498Z,24.07
2018-02-19T11:16:53.990Z,23.60
2018-02-19T11:19:21.461Z,25.10
2018-02-19T11:21:48.945Z,23.93
2018-02-19T11:24:16.466Z,25.60
2018-02-19T11:26:44.662Z,23.03
2018-02-19T11:29:12.147Z,26.87
2018-02-19T11:31:40.404Z,24.53
2018-02-19T11:34:07.901Z,24.07
2018-02-19T11:36:35.386Z,23.07
2018-02-19T11:39:02.854Z,19.10
2018-02-19T11:41:30.342Z,25.77
2018-02-19T11:43:57.819Z,26.23
2018-02-19T11:46:25.316Z,21.83
2018-02-19T11:48:52.972Z,24.97
2018-02-19T11:51:20.442Z,24.20
2018-02-19T11:53:47.941Z,24.83
2018-02-19T11:56:15.410Z,24.50
2018-02-19T11:58:43.642Z,22.90
2018-02-19T12:01:11.129Z,23.40
2018-02-19T12:03:38.609Z,23.10
2018-02-19T12:06:07.221Z,23.80
2018-02-19T12:08:34.372Z,24.03
2018-02-19T12:11:01.867Z,21.70
2018-02-19T12:13:29.329Z,23.30
2018-02-19T12:15:56.821Z,22.17
2018-02-19T12:18:25.075Z,23.37
2018-02-19T12:20:52.530Z,23.53
2018-02-19T12:23:20.033Z,20.50
2018-02-19T12:25:47.662Z,20.23
2018-02-19T12:28:15.108Z,20.17
2018-02-19T12:30:42.581Z,23.83
2018-02-19T12:33:10.066Z,26.13
2018-02-19T12:35:37.532Z,23.73
2018-02-19T12:38:05.011Z,24.33
2018-02-19T12:40:32.468Z,22.23
2018-02-19T12:42:59.980Z,25.03
2018-02-19T12:45:28.231Z,20.30
2018-02-19T12:47:55.682Z,23.40
2018-02-19T12:50:23.167Z,23.20
2018-02-19T12:52:50.664Z,22.57
2018-02-19T12:55:18.140Z,19.80
2018-02-19T12:57:45.593Z,22.40
2018-02-19T13:00:13.152Z,23.40
2018-02-19T13:02:40.637Z,18.87
2018-02-19T13:05:08.102Z,22.13
2018-02-19T13:07:35.582Z,25.10
2018-02-19T13:10:03.819Z,18.80
2018-02-19T13:12:31.302Z,23.53
2018-02-19T13:14:58.793Z,21.63
2018-02-19T13:17:27.049Z,22.50
2018-02-19T13:19:55.299Z,23.50
2018-02-19T13:22:22.780Z,19.00
2018-02-19T13:24:50.262Z,23.47
2018-02-19T13:27:17.717Z,22.60
2018-02-19T13:29:46.018Z,24.03
2018-02-19T13:32:13.485Z,22.73
2018-02-19T13:34:40.979Z,22.80
2018-02-19T13:37:08.447Z,21.50
2018-02-19T13:39:35.906Z,23.77
2018-02-19T13:42:03.389Z,18.87
2018-02-19T13:44:30.870Z,24.07
2018-02-19T13:46:58.343Z,22.00
2018-02-19T13:49:25.821Z,22.80
2018-02-19T13:51:53.281Z,22.50
2018-02-19T13:54:20.755Z,23.33
2018-02-19T13:56:48.443Z,17.47
2018-02-19T13:59:15.930Z,24.03
2018-02-19T14:01:43.389Z,22.53
2018-02-19T14:04:10.884Z,22.17
2018-02-19T14:06:38.337Z,19.33
2018-02-19T14:09:05.811Z,22.13
2018-02-19T14:11:33.286Z,23.90
2018-02-19T14:14:01.531Z,22.20
2018-02-19T14:16:29.009Z,23.20
2018-02-19T14:18:57.237Z,24.70
2018-02-19T14:21:24.737Z,22.43
2018-02-19T14:23:52.195Z,22.83
2018-02-19T14:26:19.648Z,23.90
2018-02-19T14:28:47.139Z,22.87
2018-02-19T14:31:15.413Z,23.33
2018-02-19T14:33:43.644Z,22.60
2018-02-19T14:36:11.097Z,24.67
2018-02-19T14:38:38.589Z,22.60
2018-02-19T14:41:06.813Z,23.87
2018-02-19T14:43:34.295Z,24.30
2018-02-19T14:46:03.402Z,23.23
2018-02-19T14:48:30.858Z,22.47
2018-02-19T14:50:58.316Z,23.50
2018-02-19T14:53:25.789Z,24.27
2018-02-19T14:55:53.262Z,22.13
2018-02-19T14:58:21.552Z,22.27
2018-02-19T15:00:49.033Z,24.50
2018-02-19T15:03:16.508Z,21.77
2018-02-19T15:05:43.978Z,23.60
2018-02-19T15:08:11.469Z,24.03
2018-02-19T15:10:39.717Z,24.40
2018-02-19T15:13:07.198Z,23.47
2018-02-19T15:15:34.678Z,23.40
2018-02-19T15:18:02.174Z,25.03
2018-02-19T15:20:29.621Z,21.50
2018-02-19T15:22:57.077Z,24.17
2018-02-19T15:25:24.592Z,23.07
2018-02-19T15:27:52.076Z,24.87
2018-02-19T15:30:19.551Z,23.77
2018-02-19T15:32:47.014Z,23.83
2018-02-19T15:35:14.489Z,25.07
2018-02-19T15:37:41.961Z,23.10
2018-02-19T15:40:09.419Z,20.20
2018-02-19T15:42:36.891Z,23.27
2018-02-19T15:45:04.363Z,23.80
2018-02-19T15:47:31.837Z,22.73
2018-02-19T15:49:59.373Z,21.30
2018-02-19T15:52:27.617Z,21.90
2018-02-19T15:54:55.096Z,21.10
2018-02-19T15:57:22.597Z,23.00
2018-02-19T15:59:50.826Z,20.13
2018-02-19T16:02:18.295Z,23.37
2018-02-19T16:04:46.544Z,19.60
2018-02-19T16:07:14.066Z,22.53
2018-02-19T16:09:41.526Z,22.30
2018-02-19T16:12:09.000Z,21.73
2018-02-19T16:14:36.467Z,17.97
2018-02-19T16:17:03.949Z,20.37
2018-02-19T16:19:31.434Z,22.60
2018-02-19T16:21:58.898Z,21.27
2018-02-19T16:24:27.176Z,23.80
2018-02-19T16:26:54.642Z,23.10
2018-02-19T16:29:22.131Z,23.10
2018-02-19T16:31:49.594Z,22.57
2018-02-19T16:34:17.053Z,23.07
2018-02-19T16:36:44.545Z,20.93
2018-02-19T16:39:12.014Z,21.90
2018-02-19T16:41:40.258Z,22.60
2018-02-19T16:44:07.720Z,22.63
2018-02-19T16:46:35.194Z,22.27
2018-02-19T16:49:02.694Z,23.63
2018-02-19T16:51:30.165Z,22.67
2018-02-19T16:53:57.650Z,21.70
2018-02-19T16:56:25.129Z,23.03
2018-02-19T16:58:52.596Z,21.10
2018-02-19T17:01:20.847Z,24.40
2018-02-19T17:03:48.322Z,21.40
2018-02-19T17:06:15.788Z,21.57
2018-02-19T17:08:44.052Z,21.93
2018-02-19T17:11:11.517Z,22.00
2018-02-19T17:13:38.998Z,20.50
2018-02-19T17:16:06.494Z,23.30
2018-02-19T17:18:34.035Z,24.70
2018-02-19T17:21:01.606Z,22.27
2018-02-19T17:23:29.178Z,21.00
2018-02-19T17:25:56.933Z,19.97
2018-02-19T17:28:25.352Z,21.20
2018-02-19T17:30:52.912Z,21.00
2018-02-19T17:33:20.549Z,20.70
2018-02-19T17:35:52.359Z,18.67
2018-02-19T17:38:19.856Z,21.90
2018-02-19T17:40:47.350Z,20.97
2018-02-19T17:43:14.833Z,23.70
2018-02-19T17:45:42.309Z,22.50
2018-02-19T17:48:10.622Z,22.20
2018-02-19T17:50:38.265Z,21.30
2018-02-19T17:53:05.778Z,21.37
2018-02-19T17:55:34.111Z,20.97
2018-02-19T17:58:01.650Z,19.93
2018-02-19T18:00:29.125Z,23.27
2018-02-19T18:02:56.745Z,21.73
2018-02-19T18:05:25.017Z,22.33
2018-02-19T18:07:52.503Z,21.10
2018-02-19T18:10:20.022Z,22.40
2018-02-19T18:12:47.503Z,22.10
2018-02-19T18:15:14.996Z,22.63
2018-02-19T18:17:42.529Z,23.07
2018-02-19T18:20:09.990Z,23.87
2018-02-19T18:22:38.409Z,20.57
2018-02-19T18:25:05.886Z,22.80
2018-02-19T18:27:33.371Z,23.83
2018-02-19T18:30:01.692Z,22.93
2018-02-19T18:32:29.098Z,22.63
2018-02-19T18:34:56.574Z,23.73
2018-02-19T18:37:24.797Z,22.50
2018-02-19T18:39:52.342Z,24.67
2018-02-19T18:42:19.801Z,23.80
2018-02-19T18:44:47.292Z,22.93
2018-02-19T18:47:14.749Z,21.40
2018-02-19T18:49:42.330Z,23.37
2018-02-19T18:52:09.786Z,22.67
2018-02-19T18:54:38.064Z,24.00
2018-02-19T18:57:05.530Z,22.70
2018-02-19T18:59:33.034Z,23.60
2018-02-19T19:02:00.494Z,23.50
2018-02-19T19:04:27.971Z,25.70
2018-02-19T19:06:55.462Z,20.90
2018-02-19T19:09:34.830Z,21.90
2018-02-19T19:12:02.325Z,23.20
2018-02-19T19:14:29.810Z,24.40
2018-02-19T19:16:57.271Z,23.70
2018-02-19T19:19:24.717Z,25.40
2018-02-19T19:21:52.208Z,25.23
2018-02-19T19:24:20.432Z,26.43
2018-02-19T19:26:47.913Z,26.97
2018-02-19T19:29:15.382Z,25.60
2018-02-19T19:31:42.857Z,24.67
2018-02-19T19:34:10.348Z,25.63
2018-02-19T19:36:38.116Z,22.80
2018-02-19T19:39:05.617Z,22.60
2018-02-19T19:41:33.089Z,22.40
2018-02-19T19:44:01.325Z,22.60
2018-02-19T19:46:29.086Z,22.47
2018-02-19T19:48:56.701Z,20.17
2018-02-19T19:51:24.961Z,21.87
2018-02-19T19:53:53.297Z,21.17
2018-02-19T19:56:20.884Z,23.07
2018-02-19T19:58:48.579Z,22.20
2018-02-19T20:01:16.121Z,23.07
2018-02-19T20:03:43.756Z,21.80
2018-02-19T20:06:11.234Z,24.83
2018-02-19T20:08:38.715Z,23.40
2018-02-19T20:11:06.253Z,25.57
2018-02-19T20:13:33.769Z,23.47
2018-02-19T20:16:01.385Z,24.67
2018-02-19T20:18:28.954Z,22.77
2018-02-19T20:20:56.417Z,23.97
2018-02-19T20:23:23.998Z,22.80
2018-02-19T20:25:51.620Z,22.63
2018-02-19T20:28:19.217Z,21.50
2018-02-19T20:30:46.753Z,25.10
2018-02-19T20:33:15.055Z,22.60
2018-02-19T20:35:42.793Z,23.33
2018-02-19T20:38:10.440Z,23.40
2018-02-19T20:40:37.945Z,29.70
2018-02-19T20:43:05.555Z,28.87
2018-02-19T20:45:33.028Z,26.67
2018-02-19T20:48:00.648Z,29.70
2018-02-19T20:50:28.273Z,31.07
2018-02-19T20:52:55.810Z,27.83
2018-02-19T20:55:23.289Z,27.97
2018-02-19T20:57:50.781Z,26.33
2018-02-19T21:00:18.470Z,25.77
2018-02-19T21:02:46.877Z,22.40
2018-02-19T21:05:15.192Z,23.53
2018-02-19T21:07:42.675Z,23.10
2018-02-19T21:10:10.178Z,20.07
2018-02-19T21:12:38.404Z,21.00
2018-02-19T21:15:05.890Z,21.77
2018-02-19T21:17:33.381Z,22.57
2018-02-19T21:20:01.676Z,22.90
2018-02-19T21:22:29.173Z,24.23
2018-02-19T21:24:56.654Z,22.50
2018-02-19T21:27:24.178Z,20.83
2018-02-19T21:29:51.649Z,21.73
2018-02-19T21:32:19.916Z,22.53
2018-02-19T21:34:47.435Z,21.83
2018-02-19T21:37:14.902Z,23.13
2018-02-19T21:39:42.376Z,22.03
2018-02-19T21:42:09.859Z,20.73
2018-02-19T21:44:37.322Z,23.20
2018-02-19T21:47:04.802Z,21.90
2018-02-19T21:49:32.270Z,24.80
2018-02-19T21:51:59.755Z,24.70
2018-02-19T21:54:27.267Z,23.17
2018-02-19T21:56:54.725Z,22.63
2018-02-19T21:59:22.202Z,21.00
2018-02-19T22:01:50.430Z,23.10
2018-02-19T22:04:17.912Z,23.77
2018-02-19T22:06:45.401Z,23.60
2018-02-19T22:09:13.626Z,21.37
2018-02-19T22:11:41.874Z,22.60
2018-02-19T22:14:09.332Z,20.90
2018-02-19T22:16:36.818Z,22.53
2018-02-19T22:19:05.371Z,22.30
2018-02-19T22:21:32.840Z,20.60
2018-02-19T22:24:00.321Z,21.83
2018-02-19T22:26:27.792Z,21.77
2018-02-19T22:28:55.296Z,21.73
2018-02-19T22:31:22.757Z,22.03
2018-02-19T22:33:50.267Z,23.77
2018-02-19T22:36:17.721Z,23.40
2018-02-19T22:38:45.195Z,24.73
2018-02-19T22:41:12.674Z,25.37
2018-02-19T22:43:40.910Z,26.27
2018-02-19T22:46:08.402Z,20.30
2018-02-19T22:48:36.691Z,23.40
2018-02-19T22:51:04.956Z,21.53
2018-02-19T22:53:32.450Z,22.67
2018-02-19T22:55:59.922Z,22.53
2018-02-19T22:58:27.377Z,23.10
2018-02-19T23:00:54.850Z,21.23
2018-02-19T23:03:22.342Z,22.27
2018-02-19T23:05:49.802Z,24.47
2018-02-19T23:08:17.266Z,21.67
2018-02-19T23:10:44.742Z,23.67
2018-02-19T23:13:12.189Z,21.87
2018-02-19T23:15:40.446Z,24.40
2018-02-19T23:18:07.940Z,22.73
2018-02-19T23:20:35.396Z,23.00
2018-02-19T23:23:02.849Z,23.87
2018-02-19T23:25:30.343Z,22.80
2018-02-19T23:27:57.812Z,23.87
2018-02-19T23:30:25.322Z,23.00
2018-02-19T23:32:52.789Z,22.37
2018-02-19T23:35:20.278Z,21.70
2018-02-19T23:37:47.747Z,23.67
2018-02-19T23:40:15.234Z,24.67
2018-02-19T23:42:42.702Z,20.00
2018-02-19T23:45:10.161Z,24.33
2018-02-19T23:47:37.669Z,23.80
2018-02-19T23:50:05.143Z,21.80
2018-02-19T23:52:32.634Z,23.37
2018-02-19T23:55:00.861Z,24.30
2018-02-19T23:57:28.330Z,20.17
2018-02-19T23:59:55.818Z,22.97
